Time;durP1;ratioP1;P1;durP2;ratioP2;P2;SDS_P1;SDS_P2;PMS_P1;PMS_P2;Temp;Humidity;BMP_temperature;BMP_pressure;BME280_temperature;BME280_humidity;BME280_pressure;Samples;Min_cycle;Max_cycle;Signal;HPM_P1;HPM_P2
2021/05/23 00:00:38;;;;;;;15.13;8.23;;;;;;;9.92;84.63;100886.31;5015855;28;20175;-56
2021/05/23 00:03:07;;;;;;;15.23;8.40;;;;;;;9.93;85.12;100885.38;5033165;28;20041;-56
2021/05/23 00:05:38;;;;;;;17.17;9.10;;;;;;;9.92;85.19;100883.69;5031776;28;20103;-53
2021/05/23 00:08:08;;;;;;;16.85;8.10;;;;;;;9.90;85.09;100890.84;5031948;28;20128;-55
2021/05/23 00:10:48;;;;;;;15.20;7.90;;;;;;;9.88;85.45;100882.19;5031753;28;20057;-56
2021/05/23 00:13:17;;;;;;;16.27;9.27;;;;;;;9.86;85.08;100884.09;5032911;28;20045;-54
2021/05/23 00:15:52;;;;;;;15.48;8.27;;;;;;;9.88;84.83;100891.88;5064643;28;20388;-54
2021/05/23 00:18:19;;;;;;;15.73;8.75;;;;;;;9.87;85.05;100890.16;5032492;28;20049;-54
2021/05/23 00:20:46;;;;;;;15.68;8.63;;;;;;;9.88;84.18;100886.63;5032682;28;20427;-51
2021/05/23 00:23:13;;;;;;;14.63;8.82;;;;;;;9.90;85.34;100887.38;5031619;28;20125;-54
2021/05/23 00:25:41;;;;;;;15.88;8.43;;;;;;;9.88;84.50;100890.06;5032473;28;20041;-57
2021/05/23 00:28:09;;;;;;;15.63;8.23;;;;;;;9.85;84.51;100887.63;5031464;28;20535;-54
2021/05/23 00:30:37;;;;;;;14.63;8.20;;;;;;;9.83;84.71;100886.91;5032480;28;20083;-56
2021/05/23 00:33:05;;;;;;;13.85;7.13;;;;;;;9.77;84.99;100882.84;5032654;28;20045;-55
2021/05/23 00:35:33;;;;;;;13.55;6.82;;;;;;;9.70;84.50;100889.41;5064262;28;20465;-54
2021/05/23 00:38:00;;;;;;;12.90;6.60;;;;;;;9.74;84.11;100890.09;5032348;28;20139;-55
2021/05/23 00:40:27;;;;;;;17.95;7.97;;;;;;;9.74;84.60;100885.66;5032519;28;20052;-54
2021/05/23 00:42:54;;;;;;;14.07;7.47;;;;;;;9.74;84.33;100884.84;5031201;28;20045;-53
2021/05/23 00:45:21;;;;;;;15.15;8.23;;;;;;;9.70;84.84;100880.72;5031142;28;20057;-54
2021/05/23 00:47:48;;;;;;;16.13;7.63;;;;;;;9.73;85.23;100885.75;5032590;28;20063;-55
2021/05/23 00:50:24;;;;;;;13.30;7.05;;;;;;;9.58;84.93;100884.91;5032245;28;20084;-55
2021/05/23 00:52:54;;;;;;;13.88;7.50;;;;;;;9.64;84.60;100888.00;5031135;28;20053;-54
2021/05/23 00:55:22;;;;;;;19.27;8.40;;;;;;;9.64;85.10;100895.88;5032171;28;20053;-56
2021/05/23 00:57:49;;;;;;;16.92;8.05;;;;;;;9.70;85.01;100888.59;5030957;28;20072;-53
2021/05/23 01:00:40;;;;;;;14.75;8.07;;;;;;;9.68;85.14;100893.06;5030959;28;20065;-55
2021/05/23 01:03:31;;;;;;;13.90;7.75;;;;;;;9.71;85.08;100890.28;5022185;28;20469;-54
2021/05/23 01:06:00;;;;;;;14.60;7.78;;;;;;;9.71;85.13;100885.88;5031993;28;20045;-56
2021/05/23 01:08:28;;;;;;;18.15;8.43;;;;;;;9.64;85.12;100903.78;4998507;28;20056;-56
2021/05/23 01:11:24;;;;;;;16.52;9.10;;;;;;;9.65;85.08;100899.34;5031087;28;20045;-56
2021/05/23 01:13:58;;;;;;;16.52;7.45;;;;;;;9.63;84.79;100901.25;5017298;28;20496;-55
2021/05/23 01:16:35;;;;;;;12.93;7.57;;;;;;;9.61;85.76;100895.22;5031966;28;20100;-55
2021/05/23 01:19:29;;;;;;;13.93;7.07;;;;;;;9.54;85.33;100897.38;5031815;28;20068;-54
2021/05/23 01:22:18;;;;;;;15.32;8.40;;;;;;;9.58;85.53;100901.50;5030933;28;20448;-55
2021/05/23 01:25:16;;;;;;;16.17;7.72;;;;;;;9.59;85.63;100899.75;5030963;28;20065;-54
2021/05/23 01:27:46;;;;;;;12.55;6.82;;;;;;;9.62;84.86;100903.00;5031823;28;20045;-55
2021/05/23 01:30:25;;;;;;;15.48;6.97;;;;;;;9.52;85.30;100904.50;5031907;28;20120;-56
2021/05/23 01:32:57;;;;;;;14.32;6.80;;;;;;;9.55;85.28;100901.69;5031769;28;20132;-56
2021/05/23 01:35:50;;;;;;;11.60;6.55;;;;;;;9.58;84.96;100904.13;4998117;28;20104;-55
2021/05/23 01:38:19;;;;;;;13.00;6.05;;;;;;;9.58;84.89;100908.53;5031687;28;20060;-55
2021/05/23 01:40:47;;;;;;;13.65;6.78;;;;;;;9.55;85.02;100908.72;5031863;28;20564;-55
2021/05/23 01:43:15;;;;;;;12.80;6.78;;;;;;;9.62;84.87;100902.16;5030745;28;20053;-56
2021/05/23 01:45:42;;;;;;;10.55;6.15;;;;;;;9.54;84.59;100907.88;5030550;28;20049;-54
2021/05/23 01:48:10;;;;;;;11.77;6.35;;;;;;;9.53;85.12;100908.81;5034304;28;20045;-55
2021/05/23 01:50:40;;;;;;;12.57;6.53;;;;;;;9.51;85.17;100907.22;5067463;28;20052;-56
2021/05/23 01:53:07;;;;;;;12.60;6.50;;;;;;;9.49;84.90;100904.69;5035614;28;20044;-55
2021/05/23 01:55:35;;;;;;;11.40;5.93;;;;;;;9.61;85.21;100905.72;5034135;28;20128;-55
2021/05/23 01:58:03;;;;;;;16.42;8.40;;;;;;;9.62;84.15;100896.91;5035284;28;20041;-55
2021/05/23 02:00:45;;;;;;;16.45;6.63;;;;;;;9.60;83.47;100899.63;5017615;28;20055;-55
2021/05/23 02:03:14;;;;;;;13.90;6.78;;;;;;;9.51;84.36;100912.47;5067092;28;20128;-55
2021/05/23 02:05:44;;;;;;;13.00;6.35;;;;;;;9.51;84.49;100909.84;5033968;28;20087;-55
2021/05/23 02:08:12;;;;;;;13.35;5.68;;;;;;;9.45;84.15;100914.53;5035155;28;20052;-55
2021/05/23 02:10:40;;;;;;;11.27;6.25;;;;;;;9.44;84.33;100912.00;5035020;28;20049;-56
2021/05/23 02:13:07;;;;;;;12.73;6.40;;;;;;;9.46;83.90;100912.72;5035065;28;20083;-55
2021/05/23 02:15:35;;;;;;;11.57;6.82;;;;;;;9.34;84.61;100914.31;5034913;28;20500;-54
2021/05/23 02:18:03;;;;;;;9.80;5.70;;;;;;;9.36;84.41;100916.84;5034766;28;20049;-55
2021/05/23 02:20:31;;;;;;;12.50;6.32;;;;;;;9.29;84.56;100917.19;5034824;28;20305;-55
2021/05/23 02:23:00;;;;;;;11.65;6.22;;;;;;;9.30;84.29;100924.16;5034777;28;20091;-56
2021/05/23 02:25:31;;;;;;;15.55;7.28;;;;;;;9.27;84.73;100920.84;5033625;28;20530;-55
2021/05/23 02:28:06;;;;;;;11.02;6.20;;;;;;;9.30;84.43;100924.16;5034849;28;20049;-56
2021/05/23 02:30:39;;;;;;;11.73;6.32;;;;;;;9.36;83.92;100916.84;5034862;28;20045;-54
2021/05/23 02:33:08;;;;;;;11.52;6.25;;;;;;;9.34;84.45;100930.06;5034668;28;20053;-55
2021/05/23 02:35:37;;;;;;;12.85;6.65;;;;;;;9.33;84.51;100922.28;5033435;28;20060;-55
2021/05/23 02:38:05;;;;;;;12.02;6.88;;;;;;;9.30;84.72;100925.94;5033487;28;20563;-56
2021/05/23 02:40:33;;;;;;;13.45;7.40;;;;;;;9.34;84.88;100929.22;5034463;28;20046;-55
2021/05/23 02:43:01;;;;;;;15.55;7.63;;;;;;;9.26;84.93;100933.13;5033381;28;20049;-55
2021/05/23 02:45:28;;;;;;;13.98;7.20;;;;;;;9.28;85.40;100927.78;5033488;28;20045;-54
2021/05/23 02:47:55;;;;;;;11.95;6.80;;;;;;;9.29;85.02;100929.50;5034327;28;20480;-55
2021/05/23 02:50:24;;;;;;;12.30;7.25;;;;;;;9.21;85.03;100926.47;5034194;28;20037;-54
2021/05/23 02:52:51;;;;;;;12.32;7.07;;;;;;;9.22;85.77;100925.53;5034466;28;20768;-55
2021/05/23 02:55:19;;;;;;;13.82;7.88;;;;;;;9.22;85.78;100926.38;5034244;28;20037;-55
2021/05/23 02:57:46;;;;;;;12.35;7.43;;;;;;;9.18;85.64;100919.63;5032731;28;20451;-56
2021/05/23 03:00:16;;;;;;;13.80;7.70;;;;;;;9.18;86.21;100924.88;5032224;28;20049;-54
2021/05/23 03:02:43;;;;;;;14.05;7.80;;;;;;;9.14;86.05;100924.19;5032856;28;20038;-54
2021/05/23 03:05:12;;;;;;;16.15;8.10;;;;;;;9.15;85.81;100925.03;5034048;28;20519;-54
2021/05/23 03:07:41;;;;;;;15.02;8.13;;;;;;;9.15;85.99;100932.91;5065689;28;20052;-56
2021/05/23 03:10:14;;;;;;;12.95;8.27;;;;;;;9.15;86.04;100935.53;5034065;28;20137;-55
2021/05/23 03:12:41;;;;;;;17.13;7.97;;;;;;;9.17;85.78;100931.03;5033897;28;20505;-54
2021/05/23 03:15:14;;;;;;;14.70;8.15;;;;;;;9.16;85.77;100933.75;5032629;28;20041;-55
2021/05/23 03:17:41;;;;;;;17.95;9.23;;;;;;;9.05;86.09;100935.22;5033557;28;20057;-54
2021/05/23 03:20:10;;;;;;;14.27;8.65;;;;;;;9.13;85.71;100945.28;5033761;28;20134;-55
2021/05/23 03:22:38;;;;;;;16.95;8.60;;;;;;;9.06;85.99;100946.56;5032314;28;20041;-55
2021/05/23 03:25:07;;;;;;;17.73;9.57;;;;;;;9.07;86.24;100943.00;5032493;28;20049;-55
2021/05/23 03:27:34;;;;;;;15.13;9.20;;;;;;;9.07;85.35;100943.00;5033517;28;20125;-55
2021/05/23 03:30:03;;;;;;;16.45;9.18;;;;;;;9.04;85.56;100945.78;5033590;28;20052;-56
2021/05/23 03:32:30;;;;;;;16.27;8.93;;;;;;;8.93;86.38;100951.63;5032691;28;20053;-55
2021/05/23 03:34:57;;;;;;;16.60;9.85;;;;;;;8.94;86.05;100951.59;5015882;28;20057;-53
2021/05/23 03:37:24;;;;;;;16.85;8.95;;;;;;;9.01;86.11;100964.34;5032261;28;20049;-55
2021/05/23 03:39:51;;;;;;;18.25;8.73;;;;;;;8.98;86.50;100962.72;5033289;28;20524;-53
2021/05/23 03:42:18;;;;;;;16.85;9.93;;;;;;;8.99;86.09;100956.56;5032425;28;20543;-55
2021/05/23 03:44:45;;;;;;;17.30;9.48;;;;;;;8.95;86.42;100963.75;5015837;28;20081;-55
2021/05/23 03:47:11;;;;;;;15.60;9.65;;;;;;;8.95;86.65;100960.28;5033482;28;20508;-55
2021/05/23 03:49:38;;;;;;;18.75;10.13;;;;;;;8.89;87.01;100969.34;5033127;28;20473;-55
2021/05/23 03:52:09;;;;;;;16.42;10.02;;;;;;;8.92;87.14;100969.16;5032130;28;20041;-55
2021/05/23 03:54:36;;;;;;;17.95;9.82;;;;;;;8.94;87.20;100966.47;5033553;28;20068;-55
2021/05/23 03:57:04;;;;;;;18.60;10.73;;;;;;;8.95;87.09;100963.75;5031903;28;20060;-55
2021/05/23 03:59:32;;;;;;;19.15;10.48;;;;;;;8.96;87.32;100962.81;5015457;28;20053;-53
2021/05/23 04:01:59;;;;;;;16.33;10.32;;;;;;;8.98;87.28;100964.50;5031822;28;20057;-53
2021/05/23 04:04:35;;;;;;;17.65;10.35;;;;;;;8.98;87.78;100964.50;5015518;28;20091;-54
2021/05/23 04:07:02;;;;;;;17.50;10.40;;;;;;;8.96;87.82;100965.44;5032003;28;20045;-54
2021/05/23 04:09:29;;;;;;;19.40;11.50;;;;;;;8.93;88.06;100963.00;5032415;28;20063;-51
2021/05/23 04:11:56;;;;;;;20.65;11.43;;;;;;;8.93;88.38;100970.88;5032822;28;20488;-51
2021/05/23 04:14:23;;;;;;;20.25;11.57;;;;;;;8.94;88.15;100972.56;5032800;28;20057;-55
2021/05/23 04:16:49;;;;;;;23.92;12.02;;;;;;;8.95;88.51;100973.41;5032808;28;20045;-53
2021/05/23 04:19:16;;;;;;;19.80;11.93;;;;;;;9.01;88.74;100980.06;5032626;28;20084;-54
2021/05/23 04:21:43;;;;;;;21.42;12.60;;;;;;;9.03;88.15;100988.72;5031600;28;20114;-53
2021/05/23 04:24:10;;;;;;;23.88;13.18;;;;;;;9.03;88.04;100983.47;5031443;28;20076;-53
2021/05/23 04:26:37;;;;;;;22.30;12.15;;;;;;;9.07;88.41;100982.38;5032551;28;20044;-55
2021/05/23 04:29:04;;;;;;;24.27;13.38;;;;;;;9.08;88.57;100986.66;5031419;28;20515;-52
2021/05/23 04:31:30;;;;;;;22.27;13.68;;;;;;;9.08;88.69;100982.28;5032680;28;20519;-55
2021/05/23 04:33:57;;;;;;;24.33;14.73;;;;;;;9.09;88.85;100986.59;5031445;28;20405;-54
2021/05/23 04:36:24;;;;;;;25.80;14.75;;;;;;;9.06;89.59;100988.53;5032619;28;20393;-53
2021/05/23 04:38:52;;;;;;;28.23;15.82;;;;;;;8.93;90.66;100994.47;5032279;28;20053;-56
2021/05/23 04:41:19;;;;;;;28.35;16.00;;;;;;;9.02;90.12;101000.13;5032596;28;20084;-55
2021/05/23 04:43:46;;;;;;;28.38;16.23;;;;;;;9.10;89.89;100997.94;5032292;28;20052;-55
2021/05/23 04:46:13;;;;;;;29.20;16.85;;;;;;;9.12;90.31;100996.03;5032455;28;20435;-55
2021/05/23 04:48:39;;;;;;;26.33;16.08;;;;;;;9.17;90.37;101006.31;5032246;28;20056;-56
2021/05/23 04:51:06;;;;;;;33.22;17.75;;;;;;;9.22;90.21;101015.59;5031172;28;20068;-55
2021/05/23 04:53:33;;;;;;;31.48;18.65;;;;;;;9.24;90.41;101016.38;5032336;28;20053;-55
2021/05/23 04:56:00;;;;;;;33.15;20.05;;;;;;;9.26;90.59;101008.41;5032398;28;20060;-55
2021/05/23 04:58:27;;;;;;;33.03;19.10;;;;;;;9.30;90.49;101005.50;5032184;28;20049;-56
2021/05/23 05:00:53;;;;;;;36.72;19.33;;;;;;;9.29;90.46;101000.34;5031227;28;20046;-54
2021/05/23 05:03:20;;;;;;;35.13;20.17;;;;;;;9.36;90.67;101000.84;5031759;28;20092;-56
2021/05/23 05:05:47;;;;;;;35.33;19.42;;;;;;;9.45;90.13;101002.94;5031606;28;20061;-55
2021/05/23 05:08:16;;;;;;;32.08;18.58;;;;;;;9.50;90.33;101003.50;5030567;28;20046;-56
2021/05/23 05:10:43;;;;;;;33.65;19.70;;;;;;;9.59;89.96;101002.13;5031831;28;20037;-55
2021/05/23 05:13:10;;;;;;;37.53;21.17;;;;;;;9.66;90.22;101002.63;5032201;28;20049;-55
2021/05/23 05:15:37;;;;;;;40.78;23.98;;;;;;;9.72;90.53;101003.13;5032223;28;20048;-54
2021/05/23 05:18:04;;;;;;;39.28;22.50;;;;;;;9.77;90.05;101002.84;5030953;28;20053;-55
2021/05/23 05:20:31;;;;;;;42.42;23.88;;;;;;;9.77;89.95;101002.84;5030750;28;20091;-55
2021/05/23 05:22:58;;;;;;;45.97;25.48;;;;;;;9.80;89.92;101000.00;5033270;28;20056;-55
2021/05/23 05:25:25;;;;;;;46.33;24.60;;;;;;;9.85;89.10;101005.84;5036087;28;20091;-55
2021/05/23 05:27:51;;;;;;;45.63;25.60;;;;;;;9.81;89.79;101007.81;5034807;28;20132;-55
2021/05/23 05:30:19;;;;;;;43.47;24.45;;;;;;;9.81;90.03;101007.81;5035980;28;20408;-55
2021/05/23 05:32:46;;;;;;;43.80;24.92;;;;;;;9.84;89.06;101013.81;5034669;28;20046;-55
2021/05/23 05:35:13;;;;;;;40.92;24.30;;;;;;;9.95;87.94;101014.88;5035776;28;20534;-54
2021/05/23 05:37:40;;;;;;;40.13;23.80;;;;;;;9.93;87.97;101015.91;5034533;28;20096;-53
2021/05/23 05:40:08;;;;;;;45.85;24.80;;;;;;;9.92;88.60;101016.84;5035743;28;20399;-54
2021/05/23 05:42:35;;;;;;;40.67;23.75;;;;;;;9.88;88.02;101026.66;5017974;28;20057;-53
2021/05/23 05:45:03;;;;;;;35.60;21.58;;;;;;;9.91;88.64;101017.78;5035623;28;20053;-56
2021/05/23 05:47:30;;;;;;;32.38;19.30;;;;;;;9.91;86.98;101020.41;5034312;28;20052;-52
2021/05/23 05:49:57;;;;;;;34.05;19.55;;;;;;;9.95;87.35;101022.78;5035500;28;20038;-54
2021/05/23 05:52:24;;;;;;;35.47;20.30;;;;;;;9.84;88.16;101017.28;5034551;28;20088;-54
2021/05/23 05:54:51;;;;;;;32.92;19.60;;;;;;;9.95;88.31;101025.41;5035993;28;20049;-55
2021/05/23 05:57:18;;;;;;;38.15;21.95;;;;;;;10.11;88.93;101024.47;5034192;28;20049;-54
2021/05/23 05:59:46;;;;;;;40.38;21.83;;;;;;;10.14;88.82;101022.50;5035109;28;20045;-55
2021/05/23 06:02:14;;;;;;;34.95;21.60;;;;;;;10.14;88.33;101027.75;5034241;28;20052;-54
2021/05/23 06:04:40;;;;;;;37.58;22.13;;;;;;;10.20;88.58;101029.16;5035085;28;20037;-55
2021/05/23 06:07:07;;;;;;;31.80;20.67;;;;;;;10.22;87.25;101032.53;5035268;28;20053;-54
2021/05/23 06:09:34;;;;;;;35.38;21.58;;;;;;;10.27;87.03;101041.00;5033825;28;20073;-55
2021/05/23 06:12:01;;;;;;;35.25;21.38;;;;;;;10.25;86.66;101048.13;5034012;28;20149;-55
2021/05/23 06:14:28;;;;;;;35.85;21.00;;;;;;;10.24;87.00;101041.19;5035176;28;20397;-54
2021/05/23 06:16:55;;;;;;;36.55;22.02;;;;;;;10.23;87.26;101057.06;5033925;28;20081;-55
2021/05/23 06:19:22;;;;;;;34.38;22.08;;;;;;;10.27;87.17;101048.88;5034792;28;20062;-55
2021/05/23 06:21:49;;;;;;;34.90;22.02;;;;;;;10.23;87.18;101042.13;5034869;28;20045;-55
2021/05/23 06:24:17;;;;;;;31.88;20.10;;;;;;;10.21;86.80;101044.00;5033655;28;20046;-54
2021/05/23 06:26:43;;;;;;;33.53;20.48;;;;;;;10.25;85.68;101045.50;5034814;28;20045;-53
2021/05/23 06:29:10;;;;;;;30.02;19.00;;;;;;;10.30;85.81;101056.56;5034837;28;20128;-55
2021/05/23 06:31:38;;;;;;;27.95;19.08;;;;;;;10.33;86.21;101055.53;5033440;28;20037;-56
2021/05/23 06:34:05;;;;;;;26.65;17.23;;;;;;;10.34;84.49;101061.66;5033181;28;20058;-56
2021/05/23 06:36:31;;;;;;;28.83;16.70;;;;;;;10.38;84.12;101063.19;5034809;28;20104;-55
2021/05/23 06:38:58;;;;;;;24.33;14.98;;;;;;;10.32;84.39;101070.47;5034633;28;20620;-55
2021/05/23 06:41:25;;;;;;;25.98;15.07;;;;;;;10.27;85.35;101072.53;5034642;28;20051;-55
2021/05/23 06:43:52;;;;;;;23.52;14.50;;;;;;;10.32;84.75;101080.13;5034566;28;20049;-56
2021/05/23 06:46:18;;;;;;;18.05;12.32;;;;;;;10.28;84.27;101087.38;5033438;28;20041;-56
2021/05/23 06:48:46;;;;;;;20.10;13.75;;;;;;;10.31;85.23;101087.19;5033380;28;20492;-56
2021/05/23 06:51:14;;;;;;;20.13;13.27;;;;;;;10.30;84.85;101092.53;5033104;28;20065;-55
2021/05/23 06:53:41;;;;;;;21.98;12.68;;;;;;;10.36;84.39;101094.84;5034453;28;20050;-56
2021/05/23 06:56:08;;;;;;;21.80;12.50;;;;;;;10.41;84.15;101095.38;5034309;28;20056;-55
2021/05/23 06:58:35;;;;;;;21.30;11.60;;;;;;;10.40;84.12;101100.75;5016687;28;20426;-57
2021/05/23 07:01:04;;;;;;;18.88;11.80;;;;;;;10.35;83.30;101101.03;5034271;28;20103;-57
2021/05/23 07:03:31;;;;;;;17.38;10.90;;;;;;;10.36;82.84;101099.25;5034501;28;20045;-55
2021/05/23 07:05:57;;;;;;;19.10;10.85;;;;;;;10.31;83.48;101100.34;5033004;28;20044;-54
2021/05/23 07:08:24;;;;;;;18.95;10.73;;;;;;;10.27;83.41;101108.50;5032906;28;20162;-56
2021/05/23 07:10:51;;;;;;;17.92;10.57;;;;;;;10.28;82.68;101108.41;5033919;28;20044;-56
2021/05/23 07:13:18;;;;;;;16.60;10.30;;;;;;;10.30;82.72;101110.94;5034005;28;20063;-55
2021/05/23 07:15:45;;;;;;;17.58;9.38;;;;;;;10.28;82.12;101118.94;5033887;28;20574;-56
2021/05/23 07:18:12;;;;;;;18.95;10.00;;;;;;;10.31;82.32;101113.47;5016047;28;20508;-55
2021/05/23 07:20:39;;;;;;;17.02;9.60;;;;;;;10.34;82.57;101119.50;5033754;28;20049;-55
2021/05/23 07:23:05;;;;;;;18.05;9.63;;;;;;;10.28;82.50;101111.03;5033720;28;20057;-56
2021/05/23 07:25:33;;;;;;;16.00;8.52;;;;;;;10.26;80.58;101120.78;5032590;28;20166;-55
2021/05/23 07:28:00;;;;;;;19.83;9.73;;;;;;;10.29;80.98;101125.88;5032656;28;20049;-57
2021/05/23 07:30:27;;;;;;;15.20;9.00;;;;;;;10.26;79.63;101128.66;5032568;28;20401;-55
2021/05/23 07:32:54;;;;;;;12.45;8.60;;;;;;;10.25;80.49;101128.75;5033991;28;20061;-57
2021/05/23 07:35:21;;;;;;;16.25;8.77;;;;;;;10.26;80.28;101131.28;5033548;28;20046;-55
2021/05/23 07:37:47;;;;;;;15.30;9.27;;;;;;;10.35;80.72;101132.59;5032287;28;20041;-56
2021/05/23 07:40:15;;;;;;;15.32;9.57;;;;;;;10.48;81.70;101133.53;5033266;28;20048;-52
2021/05/23 07:42:42;;;;;;;16.50;9.25;;;;;;;10.58;81.71;101132.97;5033250;28;20069;-57
2021/05/23 07:45:10;;;;;;;16.30;9.10;;;;;;;10.66;80.16;101133.34;5031662;28;20048;-57
2021/05/23 07:47:37;;;;;;;13.65;7.93;;;;;;;10.66;79.04;101141.25;5015845;28;20068;-57
2021/05/23 07:50:05;;;;;;;17.30;8.52;;;;;;;10.80;79.90;101140.41;5015740;28;20053;-54
2021/05/23 07:52:32;;;;;;;13.25;8.85;;;;;;;10.96;80.78;101143.78;5033160;28;20407;-56
2021/05/23 07:54:59;;;;;;;14.57;7.85;;;;;;;11.07;80.89;101140.50;5032192;28;20053;-58
2021/05/23 07:57:27;;;;;;;11.80;8.27;;;;;;;11.03;78.96;101143.41;5033601;28;20053;-58
2021/05/23 07:59:54;;;;;;;17.55;8.05;;;;;;;10.93;78.67;101151.84;5032881;28;20053;-57
2021/05/23 08:02:22;;;;;;;14.50;7.00;;;;;;;10.89;77.73;101152.16;5031734;28;20056;-57
2021/05/23 08:04:49;;;;;;;14.32;7.13;;;;;;;10.96;77.21;101148.19;5064812;28;20489;-58
2021/05/23 08:07:15;;;;;;;12.57;6.95;;;;;;;10.87;77.80;101154.03;5032852;28;20061;-58
2021/05/23 08:09:42;;;;;;;13.63;6.82;;;;;;;10.84;77.59;101149.81;5031674;28;20045;-57
2021/05/23 08:12:09;;;;;;;12.75;6.72;;;;;;;10.83;77.16;101158.63;5032958;28;20397;-58
2021/05/23 08:14:36;;;;;;;12.80;6.55;;;;;;;10.92;76.58;101158.09;5033050;28;20041;-55
2021/05/23 08:17:03;;;;;;;12.07;7.35;;;;;;;10.89;77.84;101155.63;5031827;28;20061;-57
2021/05/23 08:19:31;;;;;;;13.77;6.88;;;;;;;11.03;77.01;101160.06;5032583;28;20133;-58
2021/05/23 08:21:57;;;;;;;13.48;6.55;;;;;;;11.03;76.37;101164.44;5031394;28;20374;-58
2021/05/23 08:24:25;;;;;;;12.93;6.38;;;;;;;10.95;76.65;101168.41;5032776;28;20409;-58
2021/05/23 08:26:52;;;;;;;13.77;6.40;;;;;;;10.95;76.36;101172.84;5032788;28;20068;-58
2021/05/23 08:29:19;;;;;;;12.63;6.18;;;;;;;11.05;76.98;101176.56;5031497;28;20509;-58
2021/05/23 08:31:45;;;;;;;11.95;6.93;;;;;;;11.06;77.35;101180.06;5032474;28;20447;-58
2021/05/23 08:34:12;;;;;;;11.43;6.80;;;;;;;11.05;76.72;101181.00;5032615;28;20095;-56
2021/05/23 08:36:39;;;;;;;10.63;6.28;;;;;;;11.03;75.95;101185.50;5032758;28;20103;-58
2021/05/23 08:39:06;;;;;;;14.13;6.88;;;;;;;11.14;75.72;101193.59;5031399;28;20050;-57
2021/05/23 08:41:33;;;;;;;13.10;6.88;;;;;;;11.32;76.08;101195.06;5032350;28;20042;-58
2021/05/23 08:44:00;;;;;;;13.98;7.28;;;;;;;11.37;75.18;101194.81;5031126;28;20045;-57
2021/05/23 08:46:31;;;;;;;11.88;6.80;;;;;;;11.34;74.56;101200.25;5031307;28;20045;-58
2021/05/23 08:49:00;;;;;;;12.07;6.88;;;;;;;11.41;74.31;101206.84;5032295;28;20140;-57
2021/05/23 08:51:28;;;;;;;14.13;6.80;;;;;;;11.47;74.21;101210.88;5047928;28;20045;-58
2021/05/23 08:53:54;;;;;;;13.88;6.15;;;;;;;11.46;72.77;101211.78;5031079;28;20497;-58
2021/05/23 08:56:21;;;;;;;10.63;6.00;;;;;;;11.55;73.21;101205.09;5032626;28;20057;-58
2021/05/23 08:58:48;;;;;;;14.10;6.10;;;;;;;11.61;71.92;101216.09;5035457;28;20412;-58
2021/05/23 09:01:26;;;;;;;16.58;5.97;;;;;;;11.68;71.79;101216.53;5035083;28;20369;-56
2021/05/23 09:04:00;;;;;;;9.57;6.20;;;;;;;11.80;72.15;101221.03;5035225;28;20567;-56
2021/05/23 09:06:29;;;;;;;8.07;5.40;;;;;;;11.92;73.68;101224.66;5036556;28;20571;-58
2021/05/23 09:09:00;;;;;;;10.45;5.30;;;;;;;12.00;72.02;101225.03;5035118;28;20049;-58
2021/05/23 09:11:27;;;;;;;10.48;4.72;;;;;;;12.09;71.83;101226.25;5035022;28;20046;-58
2021/05/23 09:13:55;;;;;;;9.43;4.40;;;;;;;12.28;71.77;101233.75;5018566;28;20136;-56
2021/05/23 09:16:22;;;;;;;10.18;3.50;;;;;;;12.43;69.30;101236.34;5036097;28;20052;-57
2021/05/23 09:18:55;;;;;;;7.85;3.40;;;;;;;12.42;67.51;101245.19;5035868;28;20488;-57
2021/05/23 09:21:29;;;;;;;8.15;3.03;;;;;;;12.48;66.96;101242.16;5034772;28;20038;-58
2021/05/23 09:24:04;;;;;;;10.75;2.90;;;;;;;12.67;66.35;101247.88;5034751;28;20049;-55
2021/05/23 09:26:37;;;;;;;6.75;2.50;;;;;;;13.06;64.97;101247.06;5035906;28;20045;-59
2021/05/23 09:29:16;;;;;;;7.10;2.22;;;;;;;13.26;64.61;101249.16;5035743;28;20057;-59
2021/05/23 09:31:46;;;;;;;8.02;2.30;;;;;;;13.68;62.09;101255.00;5035696;28;20049;-58
2021/05/23 09:34:24;;;;;;;6.75;2.05;;;;;;;14.00;60.54;101251.84;5034713;28;20059;-58
2021/05/23 09:36:51;;;;;;;5.35;1.90;;;;;;;14.06;60.26;101257.63;5034466;28;20606;-57
2021/05/23 09:39:19;;;;;;;6.50;2.00;;;;;;;13.99;59.29;101270.47;5035738;28;20049;-57
2021/05/23 09:41:48;;;;;;;9.05;2.05;;;;;;;14.03;58.72;101264.00;5035434;28;20037;-58
2021/05/23 09:44:22;;;;;;;8.35;1.88;;;;;;;13.89;56.87;101270.28;5035878;28;20064;-57
2021/05/23 09:47:02;;;;;;;5.85;1.73;;;;;;;13.97;55.97;101280.31;5034397;28;20050;-59
2021/05/23 09:49:40;;;;;;;7.47;1.42;;;;;;;14.35;54.70;101271.34;5035453;28;20496;-59
2021/05/23 09:52:12;;;;;;;4.90;1.40;;;;;;;14.70;55.49;101266.09;5035476;28;20038;-59
2021/05/23 09:54:44;;;;;;;2.75;1.10;;;;;;;14.93;51.31;101262.63;5067174;28;20049;-58
2021/05/23 09:57:16;;;;;;;2.90;1.00;;;;;;;15.12;50.22;101270.00;5035273;28;20538;-58
2021/05/23 09:59:43;;;;;;;5.27;1.40;;;;;;;15.40;50.69;101268.69;5067134;28;20037;-58
2021/05/23 10:02:12;;;;;;;4.50;1.30;;;;;;;15.70;50.02;101260.09;5035029;28;20045;-58
2021/05/23 10:04:40;;;;;;;6.72;1.25;;;;;;;15.70;50.77;101265.41;5035199;28;20049;-57
2021/05/23 10:07:12;;;;;;;5.13;1.35;;;;;;;15.41;48.38;101277.50;5033798;28;20056;-58
2021/05/23 10:09:40;;;;;;;3.45;1.27;;;;;;;15.29;47.31;101281.94;5034719;28;20404;-59
2021/05/23 10:12:10;;;;;;;3.78;1.50;;;;;;;15.16;48.28;101276.75;5034064;28;20523;-58
2021/05/23 10:14:38;;;;;;;3.55;1.20;;;;;;;15.45;48.93;101284.25;5033680;28;20054;-59
2021/05/23 10:17:07;;;;;;;6.28;1.42;;;;;;;15.56;51.33;101289.53;5035003;28;20049;-59
2021/05/23 10:19:35;;;;;;;7.18;1.90;;;;;;;15.84;49.92;101288.22;5034728;28;20685;-59
2021/05/23 10:22:06;;;;;;;5.53;1.50;;;;;;;16.01;50.59;101283.34;5034209;28;20044;-58
2021/05/23 10:24:37;;;;;;;7.35;2.00;;;;;;;16.13;48.71;101289.44;5033212;28;20136;-57
2021/05/23 10:27:05;;;;;;;8.48;2.22;;;;;;;16.09;48.88;101293.31;5034286;28;20488;-58
2021/05/23 10:29:34;;;;;;;7.18;1.88;;;;;;;16.01;47.47;101300.09;5034639;28;20408;-59
2021/05/23 10:32:15;;;;;;;7.50;1.73;;;;;;;16.22;49.91;101297.50;5033292;28;20037;-59
2021/05/23 10:34:46;;;;;;;4.15;1.60;;;;;;;16.21;49.27;101300.28;5034961;28;20552;-58
2021/05/23 10:37:18;;;;;;;7.90;2.17;;;;;;;16.19;48.49;101304.88;5033478;28;20051;-59
2021/05/23 10:39:53;;;;;;;2.92;1.70;;;;;;;15.98;48.46;101303.00;5017078;28;20049;-59
2021/05/23 10:42:24;;;;;;;6.35;2.13;;;;;;;15.92;47.70;101306.13;5033120;28;20674;-57
2021/05/23 10:44:52;;;;;;;7.53;2.13;;;;;;;15.67;48.28;101302.78;5033224;28;20081;-57
2021/05/23 10:47:26;;;;;;;6.00;2.13;;;;;;;15.71;47.89;101304.22;5034667;28;20049;-57
2021/05/23 10:50:00;;;;;;;5.82;2.13;;;;;;;15.25;48.45;101307.00;5034407;28;20175;-58
2021/05/23 10:52:31;;;;;;;5.30;2.13;;;;;;;15.28;48.71;101307.59;5033188;28;20041;-58
2021/05/23 10:55:05;;;;;;;9.77;2.17;;;;;;;15.32;48.23;101308.19;5034359;28;20103;-58
2021/05/23 10:57:51;;;;;;;;;;;;;;;15.43;48.84;101305.53;5035095;28;20045;-58
2021/05/23 11:00:35;;;;;;;6.55;1.77;;;;;;;15.41;46.49;101304.84;5033206;28;19928;-57
2021/05/23 11:03:16;;;;;;;6.10;1.70;;;;;;;15.49;45.70;101296.28;5032995;28;20081;-57
2021/05/23 11:05:44;;;;;;;5.32;1.73;;;;;;;15.62;45.85;101304.94;5032772;28;20055;-57
2021/05/23 11:08:12;;;;;;;6.03;1.70;;;;;;;15.64;47.91;101308.31;5032855;28;20045;-57
2021/05/23 11:10:43;;;;;;;4.30;1.60;;;;;;;15.84;48.03;101316.53;5032687;28;20523;-57
2021/05/23 11:13:25;;;;;;;5.22;1.85;;;;;;;15.97;47.52;101309.28;5032539;28;20049;-57
2021/05/23 11:15:53;;;;;;;6.72;1.80;;;;;;;16.09;46.92;101312.75;5033967;28;20049;-58
2021/05/23 11:18:25;;;;;;;7.55;1.75;;;;;;;16.20;45.71;101317.19;5033952;28;20053;-58
2021/05/23 11:21:04;;;;;;;5.72;1.80;;;;;;;16.38;45.97;101322.78;5031785;28;20053;-57
2021/05/23 11:23:33;;;;;;;5.63;1.60;;;;;;;16.60;44.04;101311.22;5032477;28;20046;-57
2021/05/23 11:26:03;;;;;;;4.90;1.85;;;;;;;16.85;45.70;101314.47;5032618;28;20381;-58
2021/05/23 11:28:29;;;;;;;6.82;2.03;;;;;;;16.93;43.43;101309.38;5032611;28;20045;-57
2021/05/23 11:30:56;;;;;;;6.55;1.90;;;;;;;17.04;42.52;101319.09;5032426;28;20045;-57